Beason, Illinois
Current Conditions -  °F | °C
As of 3:35 PM on Friday 31 Oct 2014 (Local Time) from KAAA Reporting Station
Scattered Clouds Scattered Clouds  
Wind Chill: 38°   Ceiling: Unl
Heat Index: 46°   Visibility: 10mi
Dew Point: 23°   Wind: 20mph
Humidity: 41%   Direction: 350°N
Pressure: 30.26"   Gusts: 30mph
Location:  40.14°N, 89.19°W
Report Text: KAAA 312035Z AUTO 35017G26KT 10SM SCT050 08/M05 A3026 RMK AO2 T00751051
Loading
Personal Weather Stations






























Interactive Weather Map
Tropical Storm Tracking
New forecast layout! Learn more

10-Day Weather Forecast

Advertisements
Track Severe Weather on mobile